sensor_id;sensor_type;location;lat;lon;timestamp;P1;durP1;ratioP1;P2;durP2;ratioP2
4208;SDS011;36320;48.860;2.380;2023-04-24T00:01:47;7.80;;;1.30;;
4208;SDS011;36320;48.860;2.380;2023-04-24T00:04:12;9.50;;;1.40;;
4208;SDS011;36320;48.860;2.380;2023-04-24T00:06:41;7.82;;;1.20;;
4208;SDS011;36320;48.860;2.380;2023-04-24T00:09:08;9.10;;;1.30;;
4208;SDS011;36320;48.860;2.380;2023-04-24T00:11:36;6.38;;;1.20;;
4208;SDS011;36320;48.860;2.380;2023-04-24T00:14:02;6.38;;;1.10;;
4208;SDS011;36320;48.860;2.380;2023-04-24T00:16:28;8.20;;;1.20;;
4208;SDS011;36320;48.860;2.380;2023-04-24T00:18:54;7.60;;;1.75;;
4208;SDS011;36320;48.860;2.380;2023-04-24T00:21:20;7.95;;;1.80;;
4208;SDS011;36320;48.860;2.380;2023-04-24T00:23:46;6.80;;;1.50;;
4208;SDS011;36320;48.860;2.380;2023-04-24T00:26:13;6.03;;;1.10;;
4208;SDS011;36320;48.860;2.380;2023-04-24T00:28:38;6.40;;;1.30;;
4208;SDS011;36320;48.860;2.380;2023-04-24T00:31:04;6.22;;;1.38;;
4208;SDS011;36320;48.860;2.380;2023-04-24T00:33:30;6.23;;;1.20;;
4208;SDS011;36320;48.860;2.380;2023-04-24T00:35:56;7.80;;;1.40;;
4208;SDS011;36320;48.860;2.380;2023-04-24T00:38:22;8.70;;;1.20;;
4208;SDS011;36320;48.860;2.380;2023-04-24T00:40:48;7.85;;;1.38;;
4208;SDS011;36320;48.860;2.380;2023-04-24T00:43:15;6.20;;;1.40;;
4208;SDS011;36320;48.860;2.380;2023-04-24T00:45:41;6.00;;;1.20;;
4208;SDS011;36320;48.860;2.380;2023-04-24T00:48:07;6.65;;;1.35;;
4208;SDS011;36320;48.860;2.380;2023-04-24T00:50:35;6.10;;;1.20;;
4208;SDS011;36320;48.860;2.380;2023-04-24T00:53:01;7.10;;;1.20;;
4208;SDS011;36320;48.860;2.380;2023-04-24T00:55:27;5.80;;;1.10;;
4208;SDS011;36320;48.860;2.380;2023-04-24T00:57:52;6.70;;;1.30;;
4208;SDS011;36320;48.860;2.380;2023-04-24T01:00:18;6.95;;;1.65;;
4208;SDS011;36320;48.860;2.380;2023-04-24T01:02:44;7.30;;;1.30;;
4208;SDS011;36320;48.860;2.380;2023-04-24T01:05:11;6.40;;;1.17;;
4208;SDS011;36320;48.860;2.380;2023-04-24T01:07:38;5.70;;;1.10;;
4208;SDS011;36320;48.860;2.380;2023-04-24T01:10:06;9.73;;;1.20;;
4208;SDS011;36320;48.860;2.380;2023-04-24T01:12:33;9.52;;;1.30;;
4208;SDS011;36320;48.860;2.380;2023-04-24T01:15:00;10.00;;;1.30;;
4208;SDS011;36320;48.860;2.380;2023-04-24T01:17:26;11.77;;;1.58;;
4208;SDS011;36320;48.860;2.380;2023-04-24T01:19:52;7.80;;;1.50;;
4208;SDS011;36320;48.860;2.380;2023-04-24T01:22:25;8.55;;;1.20;;
4208;SDS011;36320;48.860;2.380;2023-04-24T01:24:51;8.20;;;1.40;;
4208;SDS011;36320;48.860;2.380;2023-04-24T01:27:18;12.80;;;1.40;;
4208;SDS011;36320;48.860;2.380;2023-04-24T01:29:44;7.30;;;1.23;;
4208;SDS011;36320;48.860;2.380;2023-04-24T01:32:10;6.90;;;1.40;;
4208;SDS011;36320;48.860;2.380;2023-04-24T01:34:37;15.10;;;1.42;;
4208;SDS011;36320;48.860;2.380;2023-04-24T01:37:03;6.43;;;1.20;;
4208;SDS011;36320;48.860;2.380;2023-04-24T01:39:30;7.53;;;1.20;;
4208;SDS011;36320;48.860;2.380;2023-04-24T01:41:56;7.13;;;1.40;;
4208;SDS011;36320;48.860;2.380;2023-04-24T01:44:22;9.80;;;1.50;;
4208;SDS011;36320;48.860;2.380;2023-04-24T01:46:48;5.50;;;1.10;;
4208;SDS011;36320;48.860;2.380;2023-04-24T01:49:14;6.35;;;1.30;;
4208;SDS011;36320;48.860;2.380;2023-04-24T01:51:40;12.13;;;1.63;;
4208;SDS011;36320;48.860;2.380;2023-04-24T01:54:06;5.90;;;1.23;;
4208;SDS011;36320;48.860;2.380;2023-04-24T01:56:33;11.97;;;2.00;;
4208;SDS011;36320;48.860;2.380;2023-04-24T01:59:02;5.80;;;1.10;;
4208;SDS011;36320;48.860;2.380;2023-04-24T02:01:32;6.38;;;1.10;;
4208;SDS011;36320;48.860;2.380;2023-04-24T02:04:02;9.30;;;1.10;;
4208;SDS011;36320;48.860;2.380;2023-04-24T02:06:28;6.00;;;1.20;;
4208;SDS011;36320;48.860;2.380;2023-04-24T02:08:56;8.18;;;1.50;;
4208;SDS011;36320;48.860;2.380;2023-04-24T02:11:23;6.78;;;1.75;;
4208;SDS011;36320;48.860;2.380;2023-04-24T02:13:49;9.40;;;1.40;;
4208;SDS011;36320;48.860;2.380;2023-04-24T02:16:16;6.60;;;1.30;;
4208;SDS011;36320;48.860;2.380;2023-04-24T02:18:42;6.63;;;1.10;;
4208;SDS011;36320;48.860;2.380;2023-04-24T02:21:08;8.30;;;1.30;;
4208;SDS011;36320;48.860;2.380;2023-04-24T02:23:35;6.18;;;1.17;;
4208;SDS011;36320;48.860;2.380;2023-04-24T02:26:00;6.03;;;1.02;;
4208;SDS011;36320;48.860;2.380;2023-04-24T02:28:26;6.10;;;1.10;;
4208;SDS011;36320;48.860;2.380;2023-04-24T02:30:52;6.50;;;1.25;;
4208;SDS011;36320;48.860;2.380;2023-04-24T02:33:18;8.10;;;1.30;;
4208;SDS011;36320;48.860;2.380;2023-04-24T02:35:43;8.00;;;1.50;;
4208;SDS011;36320;48.860;2.380;2023-04-24T02:38:09;6.17;;;1.37;;
4208;SDS011;36320;48.860;2.380;2023-04-24T02:40:35;6.63;;;1.17;;
4208;SDS011;36320;48.860;2.380;2023-04-24T02:43:00;7.20;;;1.30;;
4208;SDS011;36320;48.860;2.380;2023-04-24T02:45:26;8.50;;;1.45;;
4208;SDS011;36320;48.860;2.380;2023-04-24T02:47:52;5.80;;;1.10;;
4208;SDS011;36320;48.860;2.380;2023-04-24T02:50:18;9.98;;;1.30;;
4208;SDS011;36320;48.860;2.380;2023-04-24T02:52:43;8.50;;;1.50;;
4208;SDS011;36320;48.860;2.380;2023-04-24T02:55:09;5.82;;;1.23;;
4208;SDS011;36320;48.860;2.380;2023-04-24T02:57:35;6.37;;;1.30;;
4208;SDS011;36320;48.860;2.380;2023-04-24T03:00:01;8.65;;;1.67;;
4208;SDS011;36320;48.860;2.380;2023-04-24T03:02:28;8.90;;;1.40;;
4208;SDS011;36320;48.860;2.380;2023-04-24T03:04:53;7.50;;;1.10;;
4208;SDS011;36320;48.860;2.380;2023-04-24T03:07:20;6.00;;;1.27;;
4208;SDS011;36320;48.860;2.380;2023-04-24T03:09:46;8.65;;;1.80;;
4208;SDS011;36320;48.860;2.380;2023-04-24T03:12:12;8.63;;;1.30;;
4208;SDS011;36320;48.860;2.380;2023-04-24T03:14:38;12.13;;;1.48;;
4208;SDS011;36320;48.860;2.380;2023-04-24T03:17:04;6.40;;;1.80;;
4208;SDS011;36320;48.860;2.380;2023-04-24T03:19:30;6.90;;;1.50;;
4208;SDS011;36320;48.860;2.380;2023-04-24T03:21:55;10.05;;;1.20;;
4208;SDS011;36320;48.860;2.380;2023-04-24T03:24:23;6.57;;;1.25;;
4208;SDS011;36320;48.860;2.380;2023-04-24T03:26:50;11.38;;;1.38;;
4208;SDS011;36320;48.860;2.380;2023-04-24T03:29:15;5.78;;;1.20;;
4208;SDS011;36320;48.860;2.380;2023-04-24T03:31:41;6.60;;;1.10;;
4208;SDS011;36320;48.860;2.380;2023-04-24T03:34:07;5.90;;;1.10;;
4208;SDS011;36320;48.860;2.380;2023-04-24T03:36:32;12.40;;;1.55;;
4208;SDS011;36320;48.860;2.380;2023-04-24T03:38:58;6.20;;;1.17;;
4208;SDS011;36320;48.860;2.380;2023-04-24T03:41:24;10.20;;;2.00;;
4208;SDS011;36320;48.860;2.380;2023-04-24T03:43:49;9.80;;;1.50;;
4208;SDS011;36320;48.860;2.380;2023-04-24T03:46:15;7.45;;;1.52;;
4208;SDS011;36320;48.860;2.380;2023-04-24T03:48:41;8.77;;;1.40;;
4208;SDS011;36320;48.860;2.380;2023-04-24T03:51:07;5.90;;;1.20;;
4208;SDS011;36320;48.860;2.380;2023-04-24T03:53:32;11.90;;;1.20;;
4208;SDS011;36320;48.860;2.380;2023-04-24T03:55:58;9.50;;;1.67;;
4208;SDS011;36320;48.860;2.380;2023-04-24T03:58:24;8.77;;;2.00;;
4208;SDS011;36320;48.860;2.380;2023-04-24T04:00:49;6.30;;;1.20;;
4208;SDS011;36320;48.860;2.380;2023-04-24T04:03:16;11.75;;;1.90;;
4208;SDS011;36320;48.860;2.380;2023-04-24T04:05:41;10.13;;;1.70;;
4208;SDS011;36320;48.860;2.380;2023-04-24T04:08:07;7.28;;;2.05;;
4208;SDS011;36320;48.860;2.380;2023-04-24T04:10:33;8.93;;;1.40;;
4208;SDS011;36320;48.860;2.380;2023-04-24T04:12:58;8.45;;;1.48;;
4208;SDS011;36320;48.860;2.380;2023-04-24T04:15:25;6.93;;;1.42;;
4208;SDS011;36320;48.860;2.380;2023-04-24T04:17:50;5.97;;;1.20;;
4208;SDS011;36320;48.860;2.380;2023-04-24T04:20:18;7.35;;;1.50;;
4208;SDS011;36320;48.860;2.380;2023-04-24T04:22:43;9.65;;;1.25;;
4208;SDS011;36320;48.860;2.380;2023-04-24T04:25:09;12.10;;;1.60;;
4208;SDS011;36320;48.860;2.380;2023-04-24T04:27:36;6.20;;;1.30;;
4208;SDS011;36320;48.860;2.380;2023-04-24T04:30:02;6.65;;;1.40;;
4208;SDS011;36320;48.860;2.380;2023-04-24T04:32:33;8.10;;;1.70;;
4208;SDS011;36320;48.860;2.380;2023-04-24T04:34:59;6.87;;;1.43;;
4208;SDS011;36320;48.860;2.380;2023-04-24T04:37:29;6.25;;;1.33;;
4208;SDS011;36320;48.860;2.380;2023-04-24T04:39:56;7.72;;;1.80;;
4208;SDS011;36320;48.860;2.380;2023-04-24T04:42:26;8.05;;;1.20;;
4208;SDS011;36320;48.860;2.380;2023-04-24T04:44:53;8.70;;;1.80;;
4208;SDS011;36320;48.860;2.380;2023-04-24T04:47:20;7.53;;;1.42;;
4208;SDS011;36320;48.860;2.380;2023-04-24T04:49:48;6.90;;;1.50;;
4208;SDS011;36320;48.860;2.380;2023-04-24T04:52:14;8.45;;;2.13;;
4208;SDS011;36320;48.860;2.380;2023-04-24T04:54:42;8.27;;;1.70;;
4208;SDS011;36320;48.860;2.380;2023-04-24T04:57:08;8.60;;;1.70;;
4208;SDS011;36320;48.860;2.380;2023-04-24T04:59:34;8.50;;;1.60;;
4208;SDS011;36320;48.860;2.380;2023-04-24T05:02:00;8.20;;;1.70;;
4208;SDS011;36320;48.860;2.380;2023-04-24T05:04:25;9.00;;;1.60;;
4208;SDS011;36320;48.860;2.380;2023-04-24T05:06:51;5.88;;;1.15;;
4208;SDS011;36320;48.860;2.380;2023-04-24T05:09:17;11.32;;;2.33;;
4208;SDS011;36320;48.860;2.380;2023-04-24T05:11:43;8.52;;;1.20;;
4208;SDS011;36320;48.860;2.380;2023-04-24T05:14:09;6.40;;;1.70;;
4208;SDS011;36320;48.860;2.380;2023-04-24T05:16:35;6.90;;;1.35;;
4208;SDS011;36320;48.860;2.380;2023-04-24T05:19:02;7.45;;;1.60;;
4208;SDS011;36320;48.860;2.380;2023-04-24T05:21:28;11.20;;;1.80;;
4208;SDS011;36320;48.860;2.380;2023-04-24T05:23:54;6.20;;;1.50;;
4208;SDS011;36320;48.860;2.380;2023-04-24T05:26:20;8.30;;;2.03;;
4208;SDS011;36320;48.860;2.380;2023-04-24T05:28:45;7.15;;;1.50;;
4208;SDS011;36320;48.860;2.380;2023-04-24T05:31:11;6.90;;;1.70;;
4208;SDS011;36320;48.860;2.380;2023-04-24T05:33:37;10.20;;;1.60;;
4208;SDS011;36320;48.860;2.380;2023-04-24T05:36:03;10.70;;;1.80;;
4208;SDS011;36320;48.860;2.380;2023-04-24T05:38:30;7.23;;;2.00;;
4208;SDS011;36320;48.860;2.380;2023-04-24T05:40:56;11.88;;;1.35;;
4208;SDS011;36320;48.860;2.380;2023-04-24T05:43:21;10.10;;;1.53;;
4208;SDS011;36320;48.860;2.380;2023-04-24T05:45:47;10.13;;;1.90;;
4208;SDS011;36320;48.860;2.380;2023-04-24T05:48:13;6.77;;;1.50;;
4208;SDS011;36320;48.860;2.380;2023-04-24T05:50:39;7.15;;;1.95;;
4208;SDS011;36320;48.860;2.380;2023-04-24T05:53:05;7.97;;;2.17;;
4208;SDS011;36320;48.860;2.380;2023-04-24T05:55:32;14.80;;;1.87;;
4208;SDS011;36320;48.860;2.380;2023-04-24T05:57:58;8.30;;;1.73;;
4208;SDS011;36320;48.860;2.380;2023-04-24T06:00:24;6.57;;;1.73;;
4208;SDS011;36320;48.860;2.380;2023-04-24T06:02:50;7.57;;;1.90;;
4208;SDS011;36320;48.860;2.380;2023-04-24T06:05:17;9.98;;;1.90;;
4208;SDS011;36320;48.860;2.380;2023-04-24T06:07:43;8.57;;;1.88;;
4208;SDS011;36320;48.860;2.380;2023-04-24T06:10:09;12.32;;;1.80;;
4208;SDS011;36320;48.860;2.380;2023-04-24T06:12:35;8.10;;;1.90;;
4208;SDS011;36320;48.860;2.380;2023-04-24T06:15:01;6.88;;;1.80;;
4208;SDS011;36320;48.860;2.380;2023-04-24T06:17:27;8.20;;;2.00;;
4208;SDS011;36320;48.860;2.380;2023-04-24T06:19:53;16.10;;;2.00;;
4208;SDS011;36320;48.860;2.380;2023-04-24T06:22:19;7.30;;;1.80;;
4208;SDS011;36320;48.860;2.380;2023-04-24T06:24:45;9.00;;;1.70;;
4208;SDS011;36320;48.860;2.380;2023-04-24T06:27:12;7.20;;;1.70;;
4208;SDS011;36320;48.860;2.380;2023-04-24T06:29:39;6.78;;;1.70;;
4208;SDS011;36320;48.860;2.380;2023-04-24T06:32:04;8.90;;;2.03;;
4208;SDS011;36320;48.860;2.380;2023-04-24T06:34:31;10.30;;;2.47;;
4208;SDS011;36320;48.860;2.380;2023-04-24T06:36:58;12.10;;;1.73;;
4208;SDS011;36320;48.860;2.380;2023-04-24T06:39:24;8.20;;;2.30;;
4208;SDS011;36320;48.860;2.380;2023-04-24T06:41:51;6.80;;;1.63;;
4208;SDS011;36320;48.860;2.380;2023-04-24T06:44:21;10.40;;;2.37;;
4208;SDS011;36320;48.860;2.380;2023-04-24T06:46:46;8.13;;;1.95;;
4208;SDS011;36320;48.860;2.380;2023-04-24T06:49:12;10.73;;;2.45;;
4208;SDS011;36320;48.860;2.380;2023-04-24T06:51:40;7.20;;;1.70;;
4208;SDS011;36320;48.860;2.380;2023-04-24T06:54:06;9.73;;;2.10;;
4208;SDS011;36320;48.860;2.380;2023-04-24T06:56:32;9.43;;;2.03;;
4208;SDS011;36320;48.860;2.380;2023-04-24T06:58:59;9.45;;;2.70;;
4208;SDS011;36320;48.860;2.380;2023-04-24T07:01:24;10.52;;;2.53;;
4208;SDS011;36320;48.860;2.380;2023-04-24T07:03:50;11.93;;;2.77;;
4208;SDS011;36320;48.860;2.380;2023-04-24T07:06:17;10.70;;;2.33;;
4208;SDS011;36320;48.860;2.380;2023-04-24T07:08:43;8.35;;;2.20;;
4208;SDS011;36320;48.860;2.380;2023-04-24T07:11:09;11.93;;;2.90;;
4208;SDS011;36320;48.860;2.380;2023-04-24T07:13:35;8.52;;;2.55;;
4208;SDS011;36320;48.860;2.380;2023-04-24T07:16:01;8.93;;;2.33;;
4208;SDS011;36320;48.860;2.380;2023-04-24T07:18:29;9.65;;;2.38;;
4208;SDS011;36320;48.860;2.380;2023-04-24T07:20:55;11.20;;;2.80;;
4208;SDS011;36320;48.860;2.380;2023-04-24T07:23:21;10.43;;;2.70;;
4208;SDS011;36320;48.860;2.380;2023-04-24T07:25:47;7.30;;;2.10;;
4208;SDS011;36320;48.860;2.380;2023-04-24T07:28:12;10.77;;;2.70;;
4208;SDS011;36320;48.860;2.380;2023-04-24T07:30:38;10.93;;;2.57;;
4208;SDS011;36320;48.860;2.380;2023-04-24T07:33:04;14.30;;;2.80;;
4208;SDS011;36320;48.860;2.380;2023-04-24T07:35:29;10.80;;;3.10;;
4208;SDS011;36320;48.860;2.380;2023-04-24T07:37:55;14.73;;;2.37;;
4208;SDS011;36320;48.860;2.380;2023-04-24T07:40:21;8.93;;;2.50;;
4208;SDS011;36320;48.860;2.380;2023-04-24T07:42:48;9.73;;;2.30;;
4208;SDS011;36320;48.860;2.380;2023-04-24T07:45:14;13.73;;;2.70;;
4208;SDS011;36320;48.860;2.380;2023-04-24T07:47:43;9.82;;;2.55;;
4208;SDS011;36320;48.860;2.380;2023-04-24T07:50:10;11.45;;;2.70;;
4208;SDS011;36320;48.860;2.380;2023-04-24T07:52:37;10.35;;;2.50;;
4208;SDS011;36320;48.860;2.380;2023-04-24T07:55:03;8.17;;;2.23;;
4208;SDS011;36320;48.860;2.380;2023-04-24T07:57:29;10.52;;;2.90;;
4208;SDS011;36320;48.860;2.380;2023-04-24T07:59:55;8.80;;;2.30;;
4208;SDS011;36320;48.860;2.380;2023-04-24T08:02:21;9.20;;;2.30;;
4208;SDS011;36320;48.860;2.380;2023-04-24T08:04:51;10.50;;;2.70;;
4208;SDS011;36320;48.860;2.380;2023-04-24T08:07:19;9.90;;;2.65;;
4208;SDS011;36320;48.860;2.380;2023-04-24T08:09:44;11.10;;;3.07;;
4208;SDS011;36320;48.860;2.380;2023-04-24T08:12:10;8.43;;;2.20;;
4208;SDS011;36320;48.860;2.380;2023-04-24T08:14:36;13.20;;;3.20;;
4208;SDS011;36320;48.860;2.380;2023-04-24T08:17:01;11.90;;;3.13;;
4208;SDS011;36320;48.860;2.380;2023-04-24T08:19:28;9.60;;;2.45;;
4208;SDS011;36320;48.860;2.380;2023-04-24T08:21:54;8.83;;;2.30;;
4208;SDS011;36320;48.860;2.380;2023-04-24T08:24:19;11.27;;;2.50;;
4208;SDS011;36320;48.860;2.380;2023-04-24T08:26:45;9.47;;;3.00;;
4208;SDS011;36320;48.860;2.380;2023-04-24T08:29:11;12.00;;;2.63;;
4208;SDS011;36320;48.860;2.380;2023-04-24T08:31:37;9.17;;;3.10;;
4208;SDS011;36320;48.860;2.380;2023-04-24T08:34:03;11.90;;;3.30;;
4208;SDS011;36320;48.860;2.380;2023-04-24T08:36:28;16.13;;;3.00;;
4208;SDS011;36320;48.860;2.380;2023-04-24T08:38:55;8.45;;;2.40;;
4208;SDS011;36320;48.860;2.380;2023-04-24T08:41:21;17.20;;;3.07;;
4208;SDS011;36320;48.860;2.380;2023-04-24T08:43:49;10.15;;;2.90;;
4208;SDS011;36320;48.860;2.380;2023-04-24T08:46:16;11.80;;;2.50;;
4208;SDS011;36320;48.860;2.380;2023-04-24T08:48:43;10.50;;;2.92;;
4208;SDS011;36320;48.860;2.380;2023-04-24T08:51:10;13.02;;;2.70;;
4208;SDS011;36320;48.860;2.380;2023-04-24T08:53:36;9.40;;;3.05;;
4208;SDS011;36320;48.860;2.380;2023-04-24T08:56:02;9.90;;;2.80;;
4208;SDS011;36320;48.860;2.380;2023-04-24T08:58:28;15.63;;;3.20;;
4208;SDS011;36320;48.860;2.380;2023-04-24T09:00:55;10.50;;;2.90;;
4208;SDS011;36320;48.860;2.380;2023-04-24T09:03:22;9.07;;;2.78;;
4208;SDS011;36320;48.860;2.380;2023-04-24T09:05:48;9.77;;;2.60;;
4208;SDS011;36320;48.860;2.380;2023-04-24T09:08:17;13.07;;;2.80;;
4208;SDS011;36320;48.860;2.380;2023-04-24T09:10:44;12.50;;;3.00;;
4208;SDS011;36320;48.860;2.380;2023-04-24T09:13:10;15.80;;;3.30;;
4208;SDS011;36320;48.860;2.380;2023-04-24T09:15:36;10.10;;;2.70;;
4208;SDS011;36320;48.860;2.380;2023-04-24T09:18:04;10.25;;;2.67;;
4208;SDS011;36320;48.860;2.380;2023-04-24T09:20:34;14.40;;;3.20;;
4208;SDS011;36320;48.860;2.380;2023-04-24T09:23:23;10.52;;;2.78;;
4208;SDS011;36320;48.860;2.380;2023-04-24T09:25:54;11.15;;;3.08;;
4208;SDS011;36320;48.860;2.380;2023-04-24T09:28:25;13.32;;;3.00;;
4208;SDS011;36320;48.860;2.380;2023-04-24T09:31:10;10.70;;;3.25;;
4208;SDS011;36320;48.860;2.380;2023-04-24T09:34:02;12.15;;;2.88;;
4208;SDS011;36320;48.860;2.380;2023-04-24T09:36:34;13.48;;;2.75;;
4208;SDS011;36320;48.860;2.380;2023-04-24T09:39:06;10.90;;;3.20;;
4208;SDS011;36320;48.860;2.380;2023-04-24T09:41:43;11.50;;;2.50;;
4208;SDS011;36320;48.860;2.380;2023-04-24T09:44:14;11.25;;;3.15;;
4208;SDS011;36320;48.860;2.380;2023-04-24T09:46:42;12.52;;;3.13;;
4208;SDS011;36320;48.860;2.380;2023-04-24T09:49:13;9.02;;;2.40;;
4208;SDS011;36320;48.860;2.380;2023-04-24T09:51:41;9.27;;;2.70;;
4208;SDS011;36320;48.860;2.380;2023-04-24T09:54:18;11.13;;;2.53;;
4208;SDS011;36320;48.860;2.380;2023-04-24T09:56:46;12.98;;;3.60;;
4208;SDS011;36320;48.860;2.380;2023-04-24T09:59:14;9.50;;;2.80;;
4208;SDS011;36320;48.860;2.380;2023-04-24T10:01:41;16.20;;;2.93;;
4208;SDS011;36320;48.860;2.380;2023-04-24T10:04:17;12.90;;;2.80;;
4208;SDS011;36320;48.860;2.380;2023-04-24T10:06:44;8.70;;;2.50;;
4208;SDS011;36320;48.860;2.380;2023-04-24T10:09:13;9.83;;;2.63;;
4208;SDS011;36320;48.860;2.380;2023-04-24T10:11:41;8.90;;;2.45;;
4208;SDS011;36320;48.860;2.380;2023-04-24T10:14:13;9.63;;;2.65;;
4208;SDS011;36320;48.860;2.380;2023-04-24T10:16:42;8.80;;;2.30;;
4208;SDS011;36320;48.860;2.380;2023-04-24T10:19:08;12.13;;;2.80;;
4208;SDS011;36320;48.860;2.380;2023-04-24T10:21:35;17.27;;;2.60;;
4208;SDS011;36320;48.860;2.380;2023-04-24T10:24:07;10.85;;;2.90;;
4208;SDS011;36320;48.860;2.380;2023-04-24T10:26:34;10.20;;;2.72;;
4208;SDS011;36320;48.860;2.380;2023-04-24T10:29:00;10.57;;;2.80;;
4208;SDS011;36320;48.860;2.380;2023-04-24T10:31:27;9.10;;;2.67;;
4208;SDS011;36320;48.860;2.380;2023-04-24T10:33:56;13.30;;;3.00;;
4208;SDS011;36320;48.860;2.380;2023-04-24T10:36:23;9.20;;;2.85;;
4208;SDS011;36320;48.860;2.380;2023-04-24T10:38:51;14.27;;;3.17;;
4208;SDS011;36320;48.860;2.380;2023-04-24T10:41:19;9.13;;;2.38;;
4208;SDS011;36320;48.860;2.380;2023-04-24T10:43:48;11.77;;;2.97;;
4208;SDS011;36320;48.860;2.380;2023-04-24T10:46:29;10.00;;;3.00;;
4208;SDS011;36320;48.860;2.380;2023-04-24T10:48:56;11.30;;;2.72;;
4208;SDS011;36320;48.860;2.380;2023-04-24T10:51:24;14.52;;;2.80;;
4208;SDS011;36320;48.860;2.380;2023-04-24T10:54:28;10.48;;;2.35;;
4208;SDS011;36320;48.860;2.380;2023-04-24T10:59:48;7.93;;;2.38;;
4208;SDS011;36320;48.860;2.380;2023-04-24T11:02:16;10.20;;;2.65;;
4208;SDS011;36320;48.860;2.380;2023-04-24T11:04:43;9.63;;;2.20;;
4208;SDS011;36320;48.860;2.380;2023-04-24T11:07:10;8.80;;;2.53;;
4208;SDS011;36320;48.860;2.380;2023-04-24T11:09:36;10.07;;;2.60;;
4208;SDS011;36320;48.860;2.380;2023-04-24T11:12:09;9.30;;;3.00;;
4208;SDS011;36320;48.860;2.380;2023-04-24T11:17:54;11.00;;;2.45;;
4208;SDS011;36320;48.860;2.380;2023-04-24T11:20:16;8.15;;;2.22;;
4208;SDS011;36320;48.860;2.380;2023-04-24T11:22:42;10.05;;;2.65;;
4208;SDS011;36320;48.860;2.380;2023-04-24T11:25:09;8.43;;;2.45;;
4208;SDS011;36320;48.860;2.380;2023-04-24T11:27:43;7.68;;;2.20;;
4208;SDS011;36320;48.860;2.380;2023-04-24T11:30:16;11.77;;;3.17;;
4208;SDS011;36320;48.860;2.380;2023-04-24T11:32:47;17.33;;;2.70;;
4208;SDS011;36320;48.860;2.380;2023-04-24T11:35:15;13.55;;;2.30;;
4208;SDS011;36320;48.860;2.380;2023-04-24T11:37:46;11.57;;;2.60;;
4208;SDS011;36320;48.860;2.380;2023-04-24T11:40:14;10.10;;;2.70;;
4208;SDS011;36320;48.860;2.380;2023-04-24T11:42:43;9.80;;;2.70;;
4208;SDS011;36320;48.860;2.380;2023-04-24T11:45:14;9.73;;;2.47;;
4208;SDS011;36320;48.860;2.380;2023-04-24T11:47:42;9.63;;;2.30;;
4208;SDS011;36320;48.860;2.380;2023-04-24T11:50:10;16.40;;;2.45;;
4208;SDS011;36320;48.860;2.380;2023-04-24T11:52:41;9.40;;;2.25;;
4208;SDS011;36320;48.860;2.380;2023-04-24T11:57:39;9.45;;;2.40;;
4208;SDS011;36320;48.860;2.380;2023-04-24T12:00:14;10.23;;;2.10;;
4208;SDS011;36320;48.860;2.380;2023-04-24T12:02:44;8.68;;;2.33;;
4208;SDS011;36320;48.860;2.380;2023-04-24T12:05:26;6.57;;;1.70;;
4208;SDS011;36320;48.860;2.380;2023-04-24T12:07:52;7.93;;;2.10;;
4208;SDS011;36320;48.860;2.380;2023-04-24T12:10:22;10.65;;;2.20;;
4208;SDS011;36320;48.860;2.380;2023-04-24T12:12:49;9.20;;;2.17;;
4208;SDS011;36320;48.860;2.380;2023-04-24T12:15:16;10.18;;;2.50;;
4208;SDS011;36320;48.860;2.380;2023-04-24T12:17:43;11.75;;;1.95;;
4208;SDS011;36320;48.860;2.380;2023-04-24T12:20:09;9.68;;;2.00;;
4208;SDS011;36320;48.860;2.380;2023-04-24T12:22:46;11.13;;;1.90;;
4208;SDS011;36320;48.860;2.380;2023-04-24T12:25:19;8.40;;;1.87;;
4208;SDS011;36320;48.860;2.380;2023-04-24T12:30:28;8.32;;;1.85;;
4208;SDS011;36320;48.860;2.380;2023-04-24T12:32:56;6.93;;;1.63;;
4208;SDS011;36320;48.860;2.380;2023-04-24T12:35:23;10.35;;;2.20;;
4208;SDS011;36320;48.860;2.380;2023-04-24T12:37:51;7.23;;;1.80;;
4208;SDS011;36320;48.860;2.380;2023-04-24T12:40:17;9.50;;;1.80;;
4208;SDS011;36320;48.860;2.380;2023-04-24T12:42:45;7.50;;;1.67;;
4208;SDS011;36320;48.860;2.380;2023-04-24T12:45:13;10.03;;;1.80;;
4208;SDS011;36320;48.860;2.380;2023-04-24T12:47:40;7.53;;;1.95;;
4208;SDS011;36320;48.860;2.380;2023-04-24T12:50:09;6.45;;;1.38;;
4208;SDS011;36320;48.860;2.380;2023-04-24T12:52:36;7.50;;;1.60;;
4208;SDS011;36320;48.860;2.380;2023-04-24T12:55:04;7.10;;;1.80;;
4208;SDS011;36320;48.860;2.380;2023-04-24T12:57:32;9.10;;;1.90;;
4208;SDS011;36320;48.860;2.380;2023-04-24T13:00:00;18.92;;;2.20;;
4208;SDS011;36320;48.860;2.380;2023-04-24T13:02:27;10.07;;;1.70;;
4208;SDS011;36320;48.860;2.380;2023-04-24T13:04:54;7.15;;;1.55;;
4208;SDS011;36320;48.860;2.380;2023-04-24T13:07:20;6.90;;;1.40;;
4208;SDS011;36320;48.860;2.380;2023-04-24T13:09:47;7.20;;;1.52;;
4208;SDS011;36320;48.860;2.380;2023-04-24T13:12:13;7.60;;;1.90;;
4208;SDS011;36320;48.860;2.380;2023-04-24T13:14:39;7.80;;;1.90;;
4208;SDS011;36320;48.860;2.380;2023-04-24T13:17:05;9.52;;;1.90;;
4208;SDS011;36320;48.860;2.380;2023-04-24T13:19:35;7.80;;;1.30;;
4208;SDS011;36320;48.860;2.380;2023-04-24T13:22:03;6.40;;;1.40;;
4208;SDS011;36320;48.860;2.380;2023-04-24T13:24:29;8.65;;;1.70;;
4208;SDS011;36320;48.860;2.380;2023-04-24T13:26:56;8.02;;;1.90;;
4208;SDS011;36320;48.860;2.380;2023-04-24T13:29:22;7.85;;;1.33;;
4208;SDS011;36320;48.860;2.380;2023-04-24T13:31:52;9.77;;;1.80;;
4208;SDS011;36320;48.860;2.380;2023-04-24T13:34:22;6.45;;;1.40;;
4208;SDS011;36320;48.860;2.380;2023-04-24T13:36:49;6.45;;;1.30;;
4208;SDS011;36320;48.860;2.380;2023-04-24T13:39:16;6.18;;;1.10;;
4208;SDS011;36320;48.860;2.380;2023-04-24T13:41:42;7.30;;;1.30;;
4208;SDS011;36320;48.860;2.380;2023-04-24T13:44:08;6.20;;;1.30;;
4208;SDS011;36320;48.860;2.380;2023-04-24T13:46:34;7.15;;;1.50;;
4208;SDS011;36320;48.860;2.380;2023-04-24T13:49:01;9.32;;;1.30;;
4208;SDS011;36320;48.860;2.380;2023-04-24T13:51:28;7.20;;;1.40;;
4208;SDS011;36320;48.860;2.380;2023-04-24T13:53:54;7.20;;;1.48;;
4208;SDS011;36320;48.860;2.380;2023-04-24T13:56:20;10.77;;;1.60;;
4208;SDS011;36320;48.860;2.380;2023-04-24T13:58:47;7.10;;;1.40;;
4208;SDS011;36320;48.860;2.380;2023-04-24T14:01:13;7.43;;;1.70;;
4208;SDS011;36320;48.860;2.380;2023-04-24T14:03:39;6.45;;;1.20;;
4208;SDS011;36320;48.860;2.380;2023-04-24T14:06:05;6.40;;;1.30;;
4208;SDS011;36320;48.860;2.380;2023-04-24T14:08:33;7.10;;;1.20;;
4208;SDS011;36320;48.860;2.380;2023-04-24T14:10:59;10.70;;;1.73;;
4208;SDS011;36320;48.860;2.380;2023-04-24T14:13:25;8.18;;;1.30;;
4208;SDS011;36320;48.860;2.380;2023-04-24T14:15:51;7.10;;;1.50;;
4208;SDS011;36320;48.860;2.380;2023-04-24T14:18:17;7.00;;;1.50;;
4208;SDS011;36320;48.860;2.380;2023-04-24T14:20:45;7.40;;;1.40;;
4208;SDS011;36320;48.860;2.380;2023-04-24T14:23:11;7.30;;;1.25;;
4208;SDS011;36320;48.860;2.380;2023-04-24T14:25:37;8.50;;;1.60;;
4208;SDS011;36320;48.860;2.380;2023-04-24T14:28:02;7.00;;;1.50;;
4208;SDS011;36320;48.860;2.380;2023-04-24T14:30:28;7.30;;;1.37;;
4208;SDS011;36320;48.860;2.380;2023-04-24T14:32:54;8.57;;;1.30;;
4208;SDS011;36320;48.860;2.380;2023-04-24T14:35:20;8.35;;;1.67;;
4208;SDS011;36320;48.860;2.380;2023-04-24T14:37:45;6.80;;;1.30;;
4208;SDS011;36320;48.860;2.380;2023-04-24T14:40:13;7.87;;;1.30;;
4208;SDS011;36320;48.860;2.380;2023-04-24T14:42:39;6.80;;;1.40;;
4208;SDS011;36320;48.860;2.380;2023-04-24T14:45:05;10.10;;;1.65;;
4208;SDS011;36320;48.860;2.380;2023-04-24T14:47:33;7.20;;;1.40;;
4208;SDS011;36320;48.860;2.380;2023-04-24T14:49:58;9.40;;;1.50;;
4208;SDS011;36320;48.860;2.380;2023-04-24T14:52:24;7.20;;;1.30;;
4208;SDS011;36320;48.860;2.380;2023-04-24T14:54:50;7.88;;;1.48;;
4208;SDS011;36320;48.860;2.380;2023-04-24T14:57:16;7.03;;;1.40;;
4208;SDS011;36320;48.860;2.380;2023-04-24T14:59:41;7.00;;;1.20;;
4208;SDS011;36320;48.860;2.380;2023-04-24T15:02:07;6.50;;;1.10;;
4208;SDS011;36320;48.860;2.380;2023-04-24T15:04:33;8.30;;;1.60;;
4208;SDS011;36320;48.860;2.380;2023-04-24T15:06:58;6.90;;;1.30;;
4208;SDS011;36320;48.860;2.380;2023-04-24T15:09:24;6.40;;;1.30;;